Date,TemperatureHighF,TemperatureAvgF,TemperatureLowF,DewpointHighF,DewpointAvgF,DewpointLowF,HumidityHigh,HumidityAvg,HumidityLow,PressureMaxIn,PressureMinIn,WindSpeedMaxMPH,WindSpeedAvgMPH,GustSpeedMaxMPH,PrecipitationSumIn
2013-1-1,78.8,72.1,64.9,63.2,59.9,57.2,84,66,54,30.07,29.91,16,4,0,0.00
2013-1-2,82.0,70.4,59.2,67.7,63.1,58.9,99,81,49,29.95,29.84,7,2,0,0.00
2013-1-3,81.1,72.8,66.0,68.5,67.0,65.1,99,83,62,30.00,29.88,8,3,0,0.00
2013-1-4,82.0,71.5,64.6,70.7,67.8,64.3,99,89,64,30.09,29.96,9,3,0,0.00
2013-1-5,74.7,68.7,64.2,70.9,67.5,63.9,99,96,83,30.11,30.01,8,3,0,0.10
2013-1-6,81.9,72.3,64.0,72.9,68.5,63.7,99,89,68,30.04,29.90,12,3,0,0.00
2013-1-7,75.7,70.1,66.7,71.2,68.9,66.4,99,96,83,30.01,29.91,8,3,0,0.18
2013-1-8,81.7,74.8,69.4,74.3,71.3,69.1,99,89,74,30.06,29.93,13,5,0,0.23
2013-1-9,81.5,77.0,73.0,72.5,71.1,69.3,96,82,72,30.14,30.02,19,7,0,0.00
2013-1-10,80.4,76.0,73.0,70.0,67.0,63.5,86,74,58,30.16,30.04,17,8,0,0.00
2013-1-11,81.3,75.4,72.3,70.1,68.3,66.7,89,79,68,30.12,30.01,12,6,0,0.00
2013-1-12,81.0,74.6,67.8,69.1,66.8,65.1,94,77,60,30.04,29.95,11,5,0,0.00
2013-1-13,81.3,74.9,70.2,68.3,65.5,62.2,87,73,58,29.99,29.93,14,6,0,0.00
2013-1-14,80.2,73.0,63.9,67.6,64.6,61.6,98,76,59,30.03,29.97,14,4,0,0.00
2013-1-15,79.3,72.4,65.3,67.5,65.9,64.0,99,81,67,29.99,29.90,12,4,0,0.00
2013-1-16,80.8,72.2,62.1,70.2,67.0,61.8,99,85,63,29.96,29.87,12,3,0,0.01
2013-1-17,81.0,71.0,60.6,71.9,66.0,52.5,99,85,68,29.95,29.83,20,5,0,0.04
2013-1-18,71.6,63.0,51.3,59.2,52.7,45.3,84,70,60,30.09,29.95,14,7,0,0.00
2013-1-19,71.8,68.6,64.9,68.7,64.5,59.2,99,87,69,30.08,29.96,8,3,0,0.32
2013-1-20,81.5,70.5,63.7,68.8,66.5,63.4,99,88,61,30.00,29.86,8,3,0,0.22
2013-1-21,78.4,70.3,64.6,72.0,67.5,64.3,99,92,72,29.92,29.81,7,3,0,0.20
2013-1-22,75.7,67.9,61.9,64.1,58.6,52.3,99,74,57,30.07,29.85,16,6,0,0.00
2013-1-23,74.1,66.6,59.5,58.2,54.7,51.8,85,67,46,30.16,30.05,13,6,0,0.00
2013-1-24,76.3,65.1,57.9,55.2,51.4,39.8,88,64,35,30.15,30.04,14,4,0,0.00
2013-1-25,76.6,65.7,57.2,60.0,55.1,50.6,90,70,50,30.15,30.03,9,3,0,0.00
2013-1-26,78.4,66.9,58.3,61.0,57.2,50.4,99,74,44,30.12,30.01,10,3,0,0.00
2013-1-27,78.1,69.8,60.4,63.2,59.8,57.6,99,73,52,30.15,30.06,14,5,0,0.00
2013-1-28,79.3,74.3,70.7,67.7,63.9,60.4,85,71,59,30.17,30.07,14,7,0,0.00
2013-1-29,79.3,73.8,69.6,70.9,67.7,65.6,99,82,71,30.09,29.97,12,5,0,0.01
2013-1-30,79.9,74.1,70.0,69.0,65.8,63.7,93,76,63,29.97,29.81,19,6,0,0.00
2013-1-31,71.6,65.7,57.0,71.3,58.2,39.5,99,78,48,30.04,29.80,13,5,0,0.01